| time (UTC) | temp C | wind direction | speed KPH | gust KPH | rain 1hr cm | rain 24hr cm | rain mn cm | humidity % | barometer mb |
| 20260508190341 | -17 | 214 | 0.0 | 4.8 | 0.00 | 0.00 | 0.00 | 1014.6 | |
| 20260508185837 | -17 | 194 | 0.0 | 4.8 | 0.00 | 0.00 | 0.00 | 1014.6 | |
| 20260508185335 | -17 | 83 | 3.2 | 8.0 | 0.00 | 0.00 | 0.00 | 1014.7 | |
| 20260508184832 | -17 | 169 | 4.8 | 8.0 | 0.00 | 0.00 | 0.00 | 1014.7 | |
| 20260508184330 | -17 | 166 | 3.2 | 3.2 | 0.00 | 0.00 | 0.00 | 1014.8 | |
| 20260508183826 | -17 | 328 | 1.6 | 6.4 | 0.00 | 0.00 | 0.00 | 1014.8 | |
| 20260508183323 | -17 | 158 | 3.2 | 4.8 | 0.00 | 0.00 | 0.00 | 1015.2 | |
| 20260508182818 | -17 | 13 | 0.0 | 6.4 | 0.00 | 0.00 | 0.00 | 1015.2 | |
| 20260508182316 | -17 | 309 | 4.8 | 6.4 | 0.00 | 0.00 | 0.00 | 1015.2 | |
| 20260508181811 | -17 | 281 | 1.6 | 3.2 | 0.00 | 0.00 | 0.00 | 1015.2 | |
| 20260508181308 | -17 | 164 | 3.2 | 6.4 | 0.00 | 0.00 | 0.00 | 1015.2 | |
| 20260508180805 | -17 | 165 | 1.6 | 4.8 | 0.00 | 0.00 | 0.00 | 1015.2 | |
| 20260508180302 | -17 | 83 | 1.6 | 3.2 | 0.00 | 0.00 | 0.00 | 1015.2 | |
| 20260508175758 | -17 | 116 | 0.0 | 1.6 | 0.00 | 0.00 | 0.00 | 1015.7 | |
| 20260508175255 | -17 | 342 | 1.6 | 3.2 | 0.00 | 0.00 | 0.00 | 1015.7 | |
| 20260508174753 | -17 | 20 | 4.8 | 8.0 | 0.00 | 0.00 | 0.00 | 1015.7 | |
| 20260508174250 | -17 | 193 | 0.0 | 3.2 | 0.00 | 0.00 | 0.00 | 1015.7 | |
| 20260508173747 | -17 | 57 | 0.0 | 4.8 | 0.00 | 0.00 | 0.00 | 1015.7 | |
| 20260508173242 | -17 | 209 | 0.0 | 3.2 | 0.00 | 0.00 | 0.00 | 1015.7 | |
| 20260508172739 | -17 | 18 | 0.0 | 6.4 | 0.00 | 0.00 | 0.00 | 1015.7 | |
| 20260508172237 | -17 | 142 | 3.2 | 4.8 | 0.00 | 0.00 | 0.00 | 1015.7 | |
| 20260508171733 | -17 | 41 | 3.2 | 6.4 | 0.00 | 0.00 | 0.00 | 1015.8 | |
| 20260508171229 | -17 | 63 | 0.0 | 6.4 | 0.00 | 0.00 | 0.00 | 1015.8 | |
| 20260508170726 | -17 | 140 | 0.0 | 4.8 | 0.00 | 0.00 | 0.00 | 1015.7 | |
| 20260508170224 | -17 | 139 | 3.2 | 3.2 | 0.00 | 0.00 | 0.00 | 1016.3 | |
| 20260508165721 | -17 | 129 | 0.0 | 1.6 | 0.00 | 0.00 | 0.00 | 1016.3 | |
| 20260508165218 | -17 | 256 | 0.0 | 3.2 | 0.00 | 0.00 | 0.00 | 1016.4 | |
| 20260508164714 | -17 | 142 | 0.0 | 3.2 | 0.00 | 0.00 | 0.00 | 1016.4 | |
| 20260508164211 | -17 | 89 | 0.0 | 1.6 | 0.00 | 0.00 | 0.00 | 1016.3 | |
| 20260508163709 | -17 | 129 | 0.0 | 4.8 | 0.00 | 0.00 | 0.00 | 1016.6 | |
| 20260508163206 | -17 | 155 | 1.6 | 4.8 | 0.00 | 0.00 | 0.00 | 1016.4 | |
| 20260508162701 | -17 | 5 | 0.0 | 3.2 | 0.00 | 0.00 | 0.00 | 1016.4 | |
| 20260508162159 | -17 | 108 | 1.6 | 4.8 | 0.00 | 0.00 | 0.00 | 1016.5 | |
| 20260508161656 | -17 | 145 | 0.0 | 1.6 | 0.00 | 0.00 | 0.00 | 1016.7 | |
| 20260508161153 | -17 | 150 | 3.2 | 4.8 | 0.00 | 0.00 | 0.00 | 1016.7 | |
| 20260508160651 | -17 | 12 | 3.2 | 4.8 | 0.00 | 0.00 | 0.00 | 1016.5 | |
| 20260508160149 | -17 | 71 | 1.6 | 4.8 | 0.00 | 0.00 | 0.00 | 1016.7 | |
| 20260508155645 | -17 | 164 | 0.0 | 1.6 | 0.00 | 0.00 | 0.00 | 1016.8 | |
| 20260508155142 | -17 | 151 | 1.6 | 3.2 | 0.00 | 0.00 | 0.00 | 1017.1 | |
| 20260508154640 | -17 | 174 | 0.0 | 1.6 | 0.00 | 0.00 | 0.00 | 1017.0 | |
| 20260508154136 | -17 | 140 | 0.0 | 3.2 | 0.00 | 0.00 | 0.00 | 1017.0 | |
| 20260508153633 | -17 | 123 | 3.2 | 6.4 | 0.00 | 0.00 | 0.00 | 1016.8 | |
| 20260508153130 | -17 | 112 | 0.0 | 1.6 | 0.00 | 0.00 | 0.00 | 1016.8 | |
| 20260508152627 | -17 | 202 | 0.0 | 3.2 | 0.00 | 0.00 | 0.00 | 1016.8 | |
| 20260508152121 | -17 | 110 | 0.0 | 3.2 | 0.00 | 0.00 | 0.00 | 1016.8 | |
| 20260508151619 | -17 | 119 | 0.0 | 4.8 | 0.00 | 0.00 | 0.00 | 1016.8 | |
| 20260508151116 | -17 | 201 | 0.0 | 4.8 | 0.00 | 0.00 | 0.00 | 1016.8 | |
| 20260508150613 | -17 | 62 | 0.0 | 4.8 | 0.00 | 0.00 | 0.00 | 1016.8 | |
| 20260508150109 | -17 | 86 | 0.0 | 4.8 | 0.00 | 0.00 | 0.00 | 1017.0 | |
| 20260508145605 | -17 | 163 | 3.2 | 6.4 | 0.00 | 0.00 | 0.00 | 1017.0 | |
| 20260508145102 | -17 | 190 | 3.2 | 6.4 | 0.00 | 0.00 | 0.00 | 1017.0 | |
| 20260508144600 | -17 | 166 | 0.0 | 4.8 | 0.00 | 0.00 | 0.00 | 1016.9 | |
| 20260508144057 | -17 | 154 | 0.0 | 6.4 | 0.00 | 0.00 | 0.00 | 1016.9 | |
| 20260508143554 | -17 | 154 | 3.2 | 4.8 | 0.00 | 0.00 | 0.00 | 1016.9 | |
| 20260508143051 | -17 | 117 | 1.6 | 3.2 | 0.00 | 0.00 | 0.00 | 1016.9 | |
| 20260508142548 | -17 | 120 | 3.2 | 6.4 | 0.00 | 0.00 | 0.00 | 1017.0 | |
| 20260508142044 | -17 | 171 | 3.2 | 4.8 | 0.00 | 0.00 | 0.00 | 1017.0 | |
| 20260508141541 | -17 | 180 | 0.0 | 4.8 | 0.00 | 0.00 | 0.00 | 1017.0 | |
| 20260508141038 | -17 | 11 | 3.2 | 6.4 | 0.00 | 0.00 | 0.00 | 1017.1 | |
| 20260508140536 | -17 | 123 | 1.6 | 4.8 | 0.00 | 0.00 | 0.00 | 1017.1 | |
| 20260508140032 | -17 | 201 | 3.2 | 6.4 | 0.00 | 0.00 | 0.00 | 1016.9 | |
| 20260508135527 | -17 | 118 | 0.0 | 4.8 | 0.00 | 0.00 | 0.00 | 1017.0 | |
| 20260508135024 | -17 | 101 | 1.6 | 4.8 | 0.00 | 0.00 | 0.00 | 1016.8 | |
| 20260508134521 | -17 | 202 | 1.6 | 6.4 | 0.00 | 0.00 | 0.00 | 1016.9 | |
| 20260508134018 | -17 | 50 | 1.6 | 3.2 | 0.00 | 0.00 | 0.00 | 1017.4 | |
| 20260508133515 | -17 | 146 | 0.0 | 3.2 | 0.00 | 0.00 | 0.00 | 1017.4 | |
| 20260508133012 | -17 | 119 | 1.6 | 4.8 | 0.00 | 0.00 | 0.00 | 1017.3 | |
| 20260508132510 | -17 | 158 | 0.0 | 3.2 | 0.00 | 0.00 | 0.00 | 1017.4 | |
| 20260508132006 | -17 | 55 | 0.0 | 3.2 | 0.00 | 0.00 | 0.00 | 1017.5 | |
| 20260508131501 | -17 | 113 | 0.0 | 1.6 | 0.00 | 0.00 | 0.00 | 1017.5 | |
| 20260508130958 | -17 | 159 | 0.0 | 1.6 | 0.00 | 0.00 | 0.00 | 1017.2 | |
| 20260508130456 | -17 | 177 | 0.0 | 3.2 | 0.00 | 0.00 | 0.00 | 1017.2 | |
| 20260508125951 | -17 | 184 | 0.0 | 3.2 | 0.00 | 0.00 | 0.00 | 1017.2 | |
| 20260508125447 | -17 | 113 | 0.0 | 1.6 | 0.00 | 0.00 | 0.00 | 1017.4 | |
| 20260508124945 | -17 | 186 | 0.0 | 3.2 | 0.00 | 0.00 | 0.00 | 1017.3 | |
| 20260508124443 | -17 | 176 | 0.0 | 3.2 | 0.00 | 0.00 | 0.00 | 1017.4 | |
| 20260508123940 | -17 | 84 | 0.0 | 3.2 | 0.00 | 0.00 | 0.00 | 1017.5 | |
| 20260508123439 | -17 | 186 | 0.0 | 1.6 | 0.00 | 0.00 | 0.00 | 1017.4 | |
| 20260508122935 | -17 | 172 | 0.0 | 3.2 | 0.00 | 0.00 | 0.00 | 1017.5 | |
| 20260508122432 | -17 | 125 | 0.0 | 3.2 | 0.00 | 0.00 | 0.00 | 1017.5 | |
| 20260508121929 | -17 | 134 | 0.0 | 3.2 | 0.00 | 0.00 | 0.00 | 1017.4 | |
| 20260508121427 | -17 | 79 | 1.6 | 3.2 | 0.00 | 0.00 | 0.00 | 1019.2 | |
| 20260508120925 | -17 | 124 | 0.0 | 3.2 | 0.00 | 0.00 | 0.00 | 1017.6 | |
| 20260508120422 | -17 | 101 | 0.0 | 1.6 | 0.00 | 0.00 | 0.00 | 1017.6 | |
| 20260508115919 | -17 | 284 | 0.0 | 1.6 | 0.00 | 0.00 | 0.00 | 1017.5 | |
| 20260508115418 | -17 | 160 | 0.0 | 3.2 | 0.00 | 0.00 | 0.00 | 1017.9 | |
| 20260508114913 | -17 | 120 | 1.6 | 3.2 | 0.00 | 0.00 | 0.00 | 1018.1 | |
| 20260508114410 | -17 | 113 | 0.0 | 1.6 | 0.00 | 0.00 | 0.00 | 1018.2 | |
| 20260508113907 | -17 | 104 | 0.0 | 3.2 | 0.00 | 0.00 | 0.00 | 1018.1 | |
| 20260508113405 | -17 | 119 | 0.0 | 3.2 | 0.00 | 0.00 | 0.00 | 1018.2 | |
| 20260508112902 | -17 | 109 | 0.0 | 3.2 | 0.00 | 0.00 | 0.00 | 1018.1 | |
| 20260508112359 | -17 | 131 | 1.6 | 3.2 | 0.00 | 0.00 | 0.00 | 1018.0 | |
| 20260508111855 | -17 | 121 | 0.0 | 4.8 | 0.00 | 0.00 | 0.00 | 1018.1 | |
| 20260508111352 | -17 | 111 | 0.0 | 4.8 | 0.00 | 0.00 | 0.00 | 1017.9 | |
| 20260508110849 | -17 | 211 | 0.0 | 3.2 | 0.00 | 0.00 | 0.00 | 1017.9 | |
| 20260508110347 | -17 | 60 | 3.2 | 4.8 | 0.00 | 0.00 | 0.00 | 1017.8 | |
| 20260508105847 | -17 | 42 | 0.0 | 6.4 | 0.00 | 0.00 | 0.00 | 1017.6 | |
| 20260508105343 | -17 | 58 | 0.0 | 4.8 | 0.00 | 0.00 | 0.00 | 1017.4 | |
| 20260508104841 | -17 | 146 | 0.0 | 3.2 | 0.00 | 0.00 | 0.00 | 1017.4 | |
| 20260508104337 | -17 | 354 | 3.2 | 4.8 | 0.00 | 0.00 | 0.00 | 1017.5 | |
| 20260508103835 | -17 | 127 | 0.0 | 4.8 | 0.00 | 0.00 | 0.00 | 1017.8 | |
| 20260508103332 | -17 | 298 | 0.0 | 4.8 | 0.00 | 0.00 | 0.00 | 1018.0 | |
| 20260508102829 | -17 | 89 | 0.0 | 3.2 | 0.00 | 0.00 | 0.00 | 1018.0 | |
| 20260508102327 | -17 | 136 | 0.0 | 3.2 | 0.00 | 0.00 | 0.00 | 1018.1 | |
| 20260508101824 | -17 | 84 | 0.0 | 3.2 | 0.00 | 0.00 | 0.00 | 1018.1 | |
| 20260508101322 | -17 | 355 | 3.2 | 6.4 | 0.00 | 0.00 | 0.00 | 1018.4 | |
| 20260508100819 | -17 | 105 | 4.8 | 4.8 | 0.00 | 0.00 | 0.00 | 1018.5 | |
| 20260508100318 | -17 | 276 | 3.2 | 4.8 | 0.00 | 0.00 | 0.00 | 1018.5 | |
| 20260508095812 | -17 | 165 | 1.6 | 6.4 | 0.00 | 0.00 | 0.00 | 1018.4 | |
| 20260508095311 | -17 | 116 | 0.0 | 0.0 | 0.00 | 0.00 | 0.00 | 1018.2 | |
| 20260508094807 | -17 | 142 | 0.0 | 3.2 | 0.00 | 0.00 | 0.00 | 1018.2 | |
| 20260508094304 | -17 | 353 | 0.0 | 4.8 | 0.00 | 0.00 | 0.00 | 1018.5 | |
| 20260508093801 | -17 | 138 | 0.0 | 3.2 | 0.00 | 0.00 | 0.00 | 1018.5 | |
| 20260508093259 | -17 | 76 | 1.6 | 3.2 | 0.00 | 0.00 | 0.00 | 1018.5 | |
| 20260508092755 | -17 | 107 | 0.0 | 1.6 | 0.00 | 0.00 | 0.00 | 1018.5 | |
| 20260508092254 | -17 | 104 | 0.0 | 1.6 | 0.00 | 0.00 | 0.00 | 1018.4 | |
| 20260508091752 | -17 | 210 | 0.0 | 1.6 | 0.00 | 0.00 | 0.00 | 1018.1 | |
| 20260508091248 | -17 | 57 | 0.0 | 3.2 | 0.00 | 0.00 | 0.00 | 1018.1 | |
| 20260508090746 | -17 | 26 | 3.2 | 3.2 | 0.00 | 0.00 | 0.00 | 1018.0 | |
| 20260508090244 | -17 | 226 | 0.0 | 1.6 | 0.00 | 0.00 | 0.00 | 1018.1 | |
| 20260508085739 | -17 | 62 | 0.0 | 3.2 | 0.00 | 0.00 | 0.00 | 1017.8 | |
| 20260508085237 | -17 | 125 | 0.0 | 1.6 | 0.00 | 0.00 | 0.00 | 1017.8 | |
| 20260508084732 | -17 | 152 | 1.6 | 3.2 | 0.00 | 0.00 | 0.00 | 1017.5 | |
| 20260508084230 | -17 | 104 | 0.0 | 0.0 | 0.00 | 0.00 | 0.00 | 1017.5 | |
| 20260508083728 | -17 | 147 | 0.0 | 0.0 | 0.00 | 0.00 | 0.00 | 1018.0 | |
| 20260508083225 | -17 | 89 | 0.0 | 1.6 | 0.00 | 0.00 | 0.00 | 1017.9 | |
| 20260508082720 | -17 | 123 | 1.6 | 3.2 | 0.00 | 0.00 | 0.00 | 1018.0 | |
| 20260508082218 | -17 | 177 | 1.6 | 1.6 | 0.00 | 0.00 | 0.00 | 1017.6 | |
| 20260508081715 | -17 | 185 | 0.0 | 1.6 | 0.00 | 0.00 | 0.00 | 1017.9 | |
| 20260508081211 | -17 | 114 | 3.2 | 4.8 | 0.00 | 0.00 | 0.00 | 1017.8 | |
| 20260508080708 | -17 | 138 | 1.6 | 3.2 | 0.00 | 0.00 | 0.00 | 1017.5 | |
| 20260508080207 | -17 | 50 | 0.0 | 1.6 | 0.00 | 0.00 | 0.00 | 1017.5 | |
| 20260508075703 | -17 | 37 | 0.0 | 1.6 | 0.00 | 0.00 | 0.00 | 1017.4 | |
| 20260508075200 | -17 | 160 | 0.0 | 3.2 | 0.00 | 0.00 | 0.00 | 1017.3 | |
| 20260508074657 | -17 | 131 | 0.0 | 3.2 | 0.00 | 0.00 | 0.00 | 1017.2 | |
| 20260508074154 | -17 | 135 | 0.0 | 3.2 | 0.00 | 0.00 | 0.00 | 1017.4 | |
| 20260508073651 | -17 | 75 | 0.0 | 1.6 | 0.00 | 0.00 | 0.00 | 1017.3 | |
| 20260508073149 | -17 | 99 | 1.6 | 3.2 | 0.00 | 0.00 | 0.00 | 1017.8 | |
| 20260508072644 | -17 | 133 | 0.0 | 3.2 | 0.00 | 0.00 | 0.00 | 1017.9 | |
| 20260508072142 | -17 | 73 | 1.6 | 3.2 | 0.00 | 0.00 | 0.00 | 1018.0 | |
| 20260508071640 | -17 | 96 | 1.6 | 1.6 | 0.00 | 0.00 | 0.00 | 1018.1 | |
| 20260508071138 | -17 | 131 | 1.6 | 3.2 | 0.00 | 0.00 | 0.00 | 1017.9 | |
| 20260508070635 | -17 | 103 | 0.0 | 3.2 | 0.00 | 0.00 | 0.00 | 1018.1 | |
| 20260508070133 | -17 | 122 | 0.0 | 3.2 | 0.00 | 0.00 | 0.00 | 1018.2 | |
| 20260508065630 | -17 | 123 | 0.0 | 1.6 | 0.00 | 0.00 | 0.00 | 1018.3 | |
| 20260508065128 | -17 | 117 | 0.0 | 1.6 | 0.00 | 0.00 | 0.00 | 1018.3 | |
| 20260508064626 | -17 | 154 | 0.0 | 1.6 | 0.00 | 0.00 | 0.00 | 1018.3 | |
| 20260508064124 | -17 | 104 | 0.0 | 3.2 | 0.00 | 0.00 | 0.00 | 1018.6 | |
| 20260508063621 | -17 | 129 | 0.0 | 1.6 | 0.00 | 0.00 | 0.00 | 1018.6 | |
| 20260508063119 | -17 | 89 | 0.0 | 3.2 | 0.00 | 0.00 | 0.00 | 1018.7 | |
| 20260508062616 | -17 | 139 | 0.0 | 3.2 | 0.00 | 0.00 | 0.00 | 1018.6 | |
| 20260508062112 | -17 | 117 | 0.0 | 3.2 | 0.00 | 0.00 | 0.00 | 1018.6 | |
| 20260508061610 | -17 | 131 | 1.6 | 3.2 | 0.00 | 0.00 | 0.00 | 1018.7 | |
| 20260508061108 | -17 | 155 | 0.0 | 1.6 | 0.00 | 0.00 | 0.00 | 1018.9 | |
| 20260508060603 | -17 | 230 | 0.0 | 3.2 | 0.00 | 0.00 | 0.00 | 1018.7 | |
| 20260508055556 | -17 | 62 | 0.0 | 1.6 | 0.00 | 0.00 | 0.00 | 1018.5 | |
| 20260508055054 | -17 | 106 | 0.0 | 3.2 | 0.00 | 0.00 | 0.00 | 1018.2 | |
| 20260508054550 | -17 | 146 | 1.6 | 1.6 | 0.00 | 0.00 | 0.00 | 1018.3 | |
| 20260508054047 | -17 | 122 | 1.6 | 1.6 | 0.00 | 0.00 | 0.00 | 1018.4 | |
| 20260508053544 | -17 | 135 | 0.0 | 1.6 | 0.00 | 0.00 | 0.00 | 1018.6 | |
| 20260508053042 | -17 | 117 | 0.0 | 0.0 | 0.00 | 0.00 | 0.00 | 1018.5 | |
| 20260508052539 | -17 | 110 | 0.0 | 1.6 | 0.00 | 0.00 | 0.00 | 1018.5 | |
| 20260508052036 | -17 | 240 | 0.0 | 1.6 | 0.00 | 0.00 | 0.00 | 1018.7 | |
| 20260508051532 | -17 | 113 | 0.0 | 1.6 | 0.00 | 0.00 | 0.00 | 1018.4 | |
| 20260508051027 | -17 | 111 | 1.6 | 3.2 | 0.00 | 0.00 | 0.00 | 1018.5 | |
| 20260508050524 | -17 | 119 | 0.0 | 1.6 | 0.00 | 0.00 | 0.00 | 1018.8 | |
| 20260508050021 | -17 | 75 | 0.0 | 3.2 | 0.00 | 0.00 | 0.00 | 1018.6 | |
| 20260508045518 | -17 | 124 | 1.6 | 3.2 | 0.00 | 0.00 | 0.00 | 1018.6 | |
| 20260508045015 | -17 | 136 | 1.6 | 1.6 | 0.00 | 0.00 | 0.00 | 1018.8 | |
| 20260508044513 | -17 | 164 | 0.0 | 1.6 | 0.00 | 0.00 | 0.00 | 1019.3 | |
| 20260508044008 | -17 | 174 | 0.0 | 1.6 | 0.00 | 0.00 | 0.00 | 1019.1 | |
| 20260508043505 | -17 | 118 | 0.0 | 3.2 | 0.00 | 0.00 | 0.00 | 1018.8 | |
| 20260508043002 | -17 | 172 | 0.0 | 3.2 | 0.00 | 0.00 | 0.00 | 1018.9 | |
| 20260508042459 | -17 | 68 | 0.0 | 1.6 | 0.00 | 0.00 | 0.00 | 1018.7 | |
| 20260508041956 | -17 | 88 | 1.6 | 3.2 | 0.00 | 0.00 | 0.00 | 1018.5 | |
| 20260508041452 | -17 | 142 | 3.2 | 3.2 | 0.00 | 0.00 | 0.00 | 1018.7 | |
| 20260508040949 | -17 | 129 | 0.0 | 3.2 | 0.00 | 0.00 | 0.00 | 1019.3 | |
| 20260508040447 | -17 | 55 | 0.0 | 1.6 | 0.00 | 0.00 | 0.00 | 1019.0 | |
| 20260508035944 | -17 | 75 | 0.0 | 1.6 | 0.00 | 0.00 | 0.00 | 1019.0 | |
| 20260508035441 | -17 | 108 | 1.6 | 4.8 | 0.00 | 0.00 | 0.00 | 1019.0 | |
| 20260508034938 | -17 | 134 | 0.0 | 3.2 | 0.00 | 0.00 | 0.00 | 1019.4 | |
| 20260508034435 | -17 | 129 | 0.0 | 1.6 | 0.00 | 0.00 | 0.00 | 1019.4 | |
| 20260508033931 | -17 | 118 | 0.0 | 3.2 | 0.00 | 0.00 | 0.00 | 1019.4 | |
| 20260508033430 | -17 | 322 | 0.0 | 1.6 | 0.00 | 0.00 | 0.00 | 1019.5 | |
| 20260508032927 | -17 | 202 | 0.0 | 3.2 | 0.00 | 0.00 | 0.00 | 1019.2 | |
| 20260508032424 | -17 | 179 | 1.6 | 4.8 | 0.00 | 0.00 | 0.00 | 1019.2 | |
| 20260508031921 | -17 | 128 | 1.6 | 3.2 | 0.00 | 0.00 | 0.00 | 1019.4 | |
| 20260508031418 | -17 | 141 | 1.6 | 3.2 | 0.00 | 0.00 | 0.00 | 1019.5 | |
| 20260508030914 | -17 | 242 | 0.0 | 0.0 | 0.00 | 0.00 | 0.00 | 1019.4 | |
| 20260508030411 | -17 | 117 | 0.0 | 0.0 | 0.00 | 0.00 | 0.00 | 1018.7 | |
| 20260508025908 | -17 | 84 | 1.6 | 1.6 | 0.00 | 0.00 | 0.00 | 1018.5 | |
| 20260508025405 | -17 | 135 | 1.6 | 4.8 | 0.00 | 0.00 | 0.00 | 1018.1 | |
| 20260508024902 | -17 | 124 | 0.0 | 3.2 | 0.00 | 0.00 | 0.00 | 1018.3 | |
| 20260508024358 | -17 | 117 | 0.0 | 1.6 | 0.00 | 0.00 | 0.00 | 1018.4 | |
| 20260508023855 | -17 | 189 | 0.0 | 3.2 | 0.00 | 0.00 | 0.00 | 1018.2 | |
| 20260508023352 | -17 | 174 | 1.6 | 1.6 | 0.00 | 0.00 | 0.00 | 1017.8 | |
| 20260508022849 | -17 | 228 | 0.0 | 3.2 | 0.00 | 0.00 | 0.00 | 1017.5 | |
| 20260508022344 | -17 | 109 | 0.0 | 1.6 | 0.00 | 0.00 | 0.00 | 1017.5 | |
| 20260508021841 | -17 | 53 | 0.0 | 1.6 | 0.00 | 0.00 | 0.00 | 1017.3 | |
| 20260508021338 | -17 | 165 | 3.2 | 3.2 | 0.00 | 0.00 | 0.00 | 1017.4 | |
| 20260508020833 | -17 | 142 | 1.6 | 3.2 | 0.00 | 0.00 | 0.00 | 1017.2 | |
| 20260508020332 | -17 | 110 | 0.0 | 3.2 | 0.00 | 0.00 | 0.00 | 1017.3 | |
| 20260508015829 | -17 | 104 | 0.0 | 1.6 | 0.00 | 0.00 | 0.00 | 1017.5 | |
| 20260508015326 | -17 | 147 | 3.2 | 3.2 | 0.00 | 0.00 | 0.00 | 1017.1 | |
| 20260508014822 | -17 | 177 | 1.6 | 3.2 | 0.00 | 0.00 | 0.00 | 1017.3 | |
| 20260508014320 | -17 | 179 | 0.0 | 3.2 | 0.00 | 0.00 | 0.00 | 1017.5 | |
| 20260508013815 | -17 | 51 | 0.0 | 3.2 | 0.00 | 0.00 | 0.00 | 1017.6 | |
| 20260508013312 | -17 | 180 | 1.6 | 1.6 | 0.00 | 0.00 | 0.00 | 1017.6 | |
| 20260508012809 | -17 | 52 | 0.0 | 1.6 | 0.00 | 0.00 | 0.00 | 1017.3 | |
| 20260508012307 | -17 | 154 | 0.0 | 3.2 | 0.00 | 0.00 | 0.00 | 1017.3 | |
| 20260508011804 | -17 | 135 | 0.0 | 3.2 | 0.00 | 0.00 | 0.00 | 1017.3 | |
| 20260508011301 | -17 | 130 | 1.6 | 3.2 | 0.00 | 0.00 | 0.00 | 1017.1 | |
| 20260508010758 | -17 | 142 | 1.6 | 1.6 | 0.00 | 0.00 | 0.00 | 1017.2 | |
| 20260508010256 | -17 | 126 | 1.6 | 3.2 | 0.00 | 0.00 | 0.00 | 1017.9 | |
| 20260508005753 | -17 | 257 | 0.0 | 1.6 | 0.00 | 0.00 | 0.00 | 1017.9 | |
| 20260508005249 | -17 | 147 | 3.2 | 4.8 | 0.00 | 0.00 | 0.00 | 1017.9 | |
| 20260508004745 | -17 | 142 | 0.0 | 1.6 | 0.00 | 0.00 | 0.00 | 1018.4 | |
| 20260508004242 | -17 | 81 | 1.6 | 3.2 | 0.00 | 0.00 | 0.00 | 1018.1 | |
| 20260508003738 | -17 | 13 | 0.0 | 1.6 | 0.00 | 0.00 | 0.00 | 1018.0 | |
| 20260508003236 | -17 | 147 | 1.6 | 4.8 | 0.00 | 0.00 | 0.00 | 1018.0 | |
| 20260508002732 | -17 | 64 | 0.0 | 3.2 | 0.00 | 0.00 | 0.00 | 1018.0 | |
| 20260508002230 | -17 | 125 | 0.0 | 3.2 | 0.00 | 0.00 | 0.00 | 1018.2 | |
| 20260508001725 | -17 | 136 | 0.0 | 3.2 | 0.00 | 0.00 | 0.00 | 1018.7 | |
| 20260508001221 | -17 | 129 | 0.0 | 3.2 | 0.00 | 0.00 | 0.00 | 1018.5 | |
| 20260508000717 | -17 | 131 | 0.0 | 3.2 | 0.00 | 0.00 | 0.00 | 1018.7 | |
| 20260508000215 | -17 | 146 | 1.6 | 3.2 | 0.00 | 0.00 | 0.00 | 1018.6 | |
| 20260507235711 | -17 | 103 | 0.0 | 4.8 | 0.00 | 0.00 | 0.00 | 1018.8 | |
| 20260507235209 | -17 | 98 | 0.0 | 6.4 | 0.00 | 0.00 | 0.00 | 1019.1 | |
| 20260507234705 | -17 | 357 | 4.8 | 8.0 | 0.00 | 0.00 | 0.00 | 1019.3 | |
| 20260507234202 | -17 | 224 | 0.0 | 6.4 | 0.00 | 0.00 | 0.00 | 1019.2 | |
| 20260507233659 | -17 | 77 | 0.0 | 1.6 | 0.00 | 0.00 | 0.00 | 1018.9 | |
| 20260507233157 | -17 | 25 | 0.0 | 1.6 | 0.00 | 0.00 | 0.00 | 1019.0 | |
| 20260507232653 | -17 | 319 | 0.0 | 3.2 | 0.00 | 0.00 | 0.00 | 1018.8 | |
| 20260507232151 | -17 | 156 | 0.0 | 3.2 | 0.00 | 0.00 | 0.00 | 1018.3 | |
| 20260507231647 | -17 | 113 | 4.8 | 6.4 | 0.00 | 0.00 | 0.00 | 1018.2 | |
| 20260507231144 | -17 | 97 | 1.6 | 4.8 | 0.00 | 0.00 | 0.00 | 1018.4 | |
| 20260507230641 | -17 | 16 | 1.6 | 4.8 | 0.00 | 0.00 | 0.00 | 1018.6 | |
| 20260507230138 | -17 | 284 | 0.0 | 3.2 | 0.00 | 0.00 | 0.00 | 1018.7 | |
| 20260507225637 | -17 | 217 | 0.0 | 3.2 | 0.00 | 0.00 | 0.00 | 1018.6 | |
| 20260507225134 | -17 | 314 | 4.8 | 4.8 | 0.00 | 0.00 | 0.00 | 1018.7 | |
| 20260507224630 | -17 | 29 | 3.2 | 8.0 | 0.00 | 0.00 | 0.00 | 1019.0 | |
| 20260507224127 | -17 | 38 | 0.0 | 3.2 | 0.00 | 0.00 | 0.00 | 1019.0 | |
| 20260507223623 | -17 | 10 | 0.0 | 3.2 | 0.00 | 0.00 | 0.00 | 1019.3 | |
| 20260507223120 | -17 | 358 | 1.6 | 3.2 | 0.00 | 0.00 | 0.00 | 1019.3 | |
| 20260507222617 | -17 | 217 | 0.0 | 4.8 | 0.00 | 0.00 | 0.00 | 1019.0 | |
| 20260507222113 | -17 | 127 | 1.6 | 3.2 | 0.00 | 0.00 | 0.00 | 1019.0 | |
| 20260507221609 | -17 | 165 | 1.6 | 4.8 | 0.00 | 0.00 | 0.00 | 1019.3 | |
| 20260507221106 | -17 | 160 | 6.4 | 9.7 | 0.00 | 0.00 | 0.00 | 1019.1 | |
| 20260507220604 | -17 | 23 | 1.6 | 4.8 | 0.00 | 0.00 | 0.00 | 1019.6 | |
| 20260507220101 | -17 | 128 | 0.0 | 6.4 | 0.00 | 0.00 | 0.00 | 1019.6 | |
| 20260507215557 | -17 | 9 | 3.2 | 8.0 | 0.00 | 0.00 | 0.00 | 1019.8 | |
| 20260507215055 | -17 | 107 | 3.2 | 4.8 | 0.00 | 0.00 | 0.00 | 1019.7 | |
| 20260507214552 | -17 | 0 | 3.2 | 8.0 | 0.00 | 0.00 | 0.00 | 1019.9 | |
| 20260507214048 | -17 | 354 | 3.2 | 8.0 | 0.00 | 0.00 | 0.00 | 1020.0 | |
| 20260507213544 | -17 | 318 | 3.2 | 8.0 | 0.00 | 0.00 | 0.00 | 1019.9 | |
| 20260507213042 | -17 | 328 | 0.0 | 4.8 | 0.00 | 0.00 | 0.00 | 1019.6 | |
| 20260507212537 | -17 | 6 | 3.2 | 8.0 | 0.00 | 0.00 | 0.00 | 1019.7 | |
| 20260507212034 | -17 | 335 | 3.2 | 8.0 | 0.00 | 0.00 | 0.00 | 1019.7 | |
| 20260507211531 | -17 | 93 | 0.0 | 4.8 | 0.00 | 0.00 | 0.00 | 1019.6 | |
| 20260507211027 | -17 | 327 | 1.6 | 3.2 | 0.00 | 0.00 | 0.00 | 1019.6 | |
| 20260507210525 | -17 | 132 | 3.2 | 4.8 | 0.00 | 0.00 | 0.00 | 1019.1 | |
| 20260507210021 | -17 | 142 | 4.8 | 4.8 | 0.00 | 0.00 | 0.00 | 1019.6 | |
| 20260507205518 | -17 | 154 | 0.0 | 3.2 | 0.00 | 0.00 | 0.00 | 1019.8 | |
| 20260507205014 | -17 | 40 | 1.6 | 8.0 | 0.00 | 0.00 | 0.00 | 1020.0 | |
| 20260507204510 | -17 | 273 | 4.8 | 4.8 | 0.00 | 0.00 | 0.00 | 1020.3 | |
| 20260507204008 | -17 | 170 | 0.0 | 3.2 | 0.00 | 0.00 | 0.00 | 1019.9 | |
| 20260507203506 | -17 | 356 | 0.0 | 3.2 | 0.00 | 0.00 | 0.00 | 1020.1 | |
| 20260507203003 | -17 | 354 | 3.2 | 8.0 | 0.00 | 0.00 | 0.00 | 1020.2 | |
| 20260507202458 | -17 | 2 | 1.6 | 3.2 | 0.00 | 0.00 | 0.00 | 1020.2 | |
| 20260507201955 | -17 | 319 | 1.6 | 6.4 | 0.00 | 0.00 | 0.00 | 1020.5 | |
| 20260507201450 | -17 | 308 | 1.6 | 8.0 | 0.00 | 0.00 | 0.00 | 1020.5 | |
| 20260507200947 | -17 | 21 | 1.6 | 4.8 | 0.00 | 0.00 | 0.00 | 1020.4 | |
| 20260507200442 | -17 | 201 | 1.6 | 3.2 | 0.00 | 0.00 | 0.00 | 1020.0 | |
| 20260507195938 | -17 | 130 | 1.6 | 8.0 | 0.00 | 0.00 | 0.00 | 1020.3 | |
| 20260507195436 | -17 | 128 | 0.0 | 4.8 | 0.00 | 0.00 | 0.00 | 1020.3 | |
| 20260507194934 | -17 | 346 | 0.0 | 8.0 | 0.00 | 0.00 | 0.00 | 1020.5 | |
| 20260507194430 | -17 | 349 | 4.8 | 6.4 | 0.00 | 0.00 | 0.00 | 1020.9 | |
| 20260507193926 | -17 | 233 | 0.0 | 6.4 | 0.00 | 0.00 | 0.00 | 1021.1 | |
| 20260507193423 | -17 | 81 | 1.6 | 4.8 | 0.00 | 0.00 | 0.00 | 1021.2 | |
| 20260507192919 | -17 | 114 | 1.6 | 3.2 | 0.00 | 0.00 | 0.00 | 1021.1 | |
| 20260507192416 | -17 | 319 | 3.2 | 4.8 | 0.00 | 0.00 | 0.00 | 1020.9 | |
| 20260507191913 | -17 | 11 | 1.6 | 6.4 | 0.00 | 0.00 | 0.00 | 1020.5 | |
| 20260507191409 | -17 | 196 | 0.0 | 4.8 | 0.00 | 0.00 | 0.00 | 1020.9 | |
| 20260507190906 | -17 | 39 | 0.0 | 3.2 | 0.00 | 0.00 | 0.00 | 1021.2 |